sensor_id;sensor_type;location;lat;lon;timestamp;pressure;altitude;pressure_sealevel;temperature;humidity
44313;BME280;38833;51.142;-0.974;2023-06-22T10:32:09;100356.70;;;29.61;30.25
44313;BME280;38833;51.142;-0.974;2023-06-22T10:34:42;100365.11;;;30.68;30.04
44313;BME280;38833;51.142;-0.974;2023-06-22T10:37:16;100362.54;;;30.48;29.97
44313;BME280;38833;51.142;-0.974;2023-06-22T10:39:49;100361.56;;;30.60;29.93
44313;BME280;38833;51.142;-0.974;2023-06-22T10:42:22;100357.87;;;30.73;29.71
44313;BME280;38833;51.142;-0.974;2023-06-22T10:44:56;100359.03;;;30.63;29.83
44313;BME280;38833;51.142;-0.974;2023-06-22T10:47:29;100356.07;;;30.87;29.72
44313;BME280;38833;51.142;-0.974;2023-06-22T10:50:03;100356.34;;;30.77;29.53
44313;BME280;38833;51.142;-0.974;2023-06-22T10:52:37;100356.94;;;30.70;29.81
44313;BME280;38833;51.142;-0.974;2023-06-22T10:55:10;100356.76;;;30.69;29.88
44313;BME280;38833;51.142;-0.974;2023-06-22T10:57:44;100356.61;;;30.58;29.67
44313;BME280;38833;51.142;-0.974;2023-06-22T11:00:17;100358.53;;;31.05;29.79
44313;BME280;38833;51.142;-0.974;2023-06-22T11:02:50;100358.62;;;31.40;29.61
44313;BME280;38833;51.142;-0.974;2023-06-22T11:05:23;100358.74;;;31.66;29.25
44313;BME280;38833;51.142;-0.974;2023-06-22T11:07:57;100355.27;;;31.52;29.54
44313;BME280;38833;51.142;-0.974;2023-06-22T11:10:31;100355.52;;;31.58;29.36
44313;BME280;38833;51.142;-0.974;2023-06-22T11:13:04;100357.06;;;31.41;29.23
44313;BME280;38833;51.142;-0.974;2023-06-22T11:15:37;100359.53;;;31.48;29.44
44313;BME280;38833;51.142;-0.974;2023-06-22T11:18:11;100357.96;;;31.74;29.16
44313;BME280;38833;51.142;-0.974;2023-06-22T11:20:44;100354.35;;;31.76;28.79
44313;BME280;38833;51.142;-0.974;2023-06-22T11:23:18;100355.52;;;31.61;29.07
44313;BME280;38833;51.142;-0.974;2023-06-22T11:25:51;100355.33;;;31.69;28.93
44313;BME280;38833;51.142;-0.974;2023-06-22T11:28:24;100355.32;;;31.92;28.99
44313;BME280;38833;51.142;-0.974;2023-06-22T11:30:58;100355.03;;;31.87;28.58
44313;BME280;38833;51.142;-0.974;2023-06-22T11:33:31;100354.08;;;31.87;28.63
44313;BME280;38833;51.142;-0.974;2023-06-22T11:36:10;100354.50;;;31.87;28.60
44313;BME280;38833;51.142;-0.974;2023-06-22T11:38:43;100359.60;;;31.86;28.58
44313;BME280;38833;51.142;-0.974;2023-06-22T11:41:17;100364.20;;;31.81;28.21
44313;BME280;38833;51.142;-0.974;2023-06-22T11:43:50;100360.93;;;31.83;28.34
44313;BME280;38833;51.142;-0.974;2023-06-22T11:46:23;100355.30;;;31.86;28.54
44313;BME280;38833;51.142;-0.974;2023-06-22T11:48:57;100354.18;;;31.94;28.41
44313;BME280;38833;51.142;-0.974;2023-06-22T11:51:30;100354.65;;;31.95;28.46
44313;BME280;38833;51.142;-0.974;2023-06-22T11:54:03;100346.51;;;32.03;28.63
44313;BME280;38833;51.142;-0.974;2023-06-22T11:56:37;100347.54;;;32.17;28.72
44313;BME280;38833;51.142;-0.974;2023-06-22T11:59:10;100345.21;;;32.24;28.57
44313;BME280;38833;51.142;-0.974;2023-06-22T12:01:43;100344.85;;;32.27;28.70
44313;BME280;38833;51.142;-0.974;2023-06-22T12:04:16;100345.54;;;32.42;28.34
44313;BME280;38833;51.142;-0.974;2023-06-22T12:06:50;100341.81;;;32.42;28.11
44313;BME280;38833;51.142;-0.974;2023-06-22T12:09:23;100337.84;;;32.41;28.36
44313;BME280;38833;51.142;-0.974;2023-06-22T12:11:56;100330.98;;;32.43;28.34
44313;BME280;38833;51.142;-0.974;2023-06-22T12:14:30;100330.17;;;32.52;28.37
44313;BME280;38833;51.142;-0.974;2023-06-22T12:17:04;100323.27;;;32.33;27.69
44313;BME280;38833;51.142;-0.974;2023-06-22T12:19:37;100322.69;;;31.98;27.32
44313;BME280;38833;51.142;-0.974;2023-06-22T12:22:10;100317.47;;;31.69;27.65
44313;BME280;38833;51.142;-0.974;2023-06-22T12:24:43;100319.69;;;31.71;27.67
44313;BME280;38833;51.142;-0.974;2023-06-22T12:27:17;100318.31;;;31.78;27.65
44313;BME280;38833;51.142;-0.974;2023-06-22T12:29:50;100311.02;;;31.60;27.78
44313;BME280;38833;51.142;-0.974;2023-06-22T12:32:24;100309.67;;;31.57;27.93
44313;BME280;38833;51.142;-0.974;2023-06-22T12:34:58;100309.65;;;31.42;28.07
44313;BME280;38833;51.142;-0.974;2023-06-22T12:37:31;100310.68;;;31.74;28.00
44313;BME280;38833;51.142;-0.974;2023-06-22T12:40:06;100307.27;;;31.56;27.94
44313;BME280;38833;51.142;-0.974;2023-06-22T12:42:40;100313.42;;;31.30;27.97
44313;BME280;38833;51.142;-0.974;2023-06-22T12:45:13;100309.76;;;31.47;27.98
44313;BME280;38833;51.142;-0.974;2023-06-22T12:47:46;100312.31;;;31.50;27.98
44313;BME280;38833;51.142;-0.974;2023-06-22T12:50:19;100305.66;;;31.60;27.88
44313;BME280;38833;51.142;-0.974;2023-06-22T12:52:53;100306.55;;;31.63;28.06
44313;BME280;38833;51.142;-0.974;2023-06-22T12:55:26;100310.06;;;31.64;27.91
44313;BME280;38833;51.142;-0.974;2023-06-22T12:57:59;100309.91;;;31.53;27.89
44313;BME280;38833;51.142;-0.974;2023-06-22T13:00:32;100308.10;;;31.61;27.82
44313;BME280;38833;51.142;-0.974;2023-06-22T13:03:06;100305.29;;;31.55;27.90
44313;BME280;38833;51.142;-0.974;2023-06-22T13:05:39;100306.37;;;31.49;28.12
44313;BME280;38833;51.142;-0.974;2023-06-22T13:08:12;100306.69;;;31.45;28.16
44313;BME280;38833;51.142;-0.974;2023-06-22T13:10:46;100309.05;;;31.40;28.19
44313;BME280;38833;51.142;-0.974;2023-06-22T13:13:19;100310.25;;;31.66;28.05
44313;BME280;38833;51.142;-0.974;2023-06-22T13:15:52;100307.29;;;31.37;28.07
44313;BME280;38833;51.142;-0.974;2023-06-22T13:18:26;100305.20;;;31.83;28.26
44313;BME280;38833;51.142;-0.974;2023-06-22T13:20:59;100307.53;;;31.44;28.18
44313;BME280;38833;51.142;-0.974;2023-06-22T13:23:32;100310.51;;;31.46;28.30
44313;BME280;38833;51.142;-0.974;2023-06-22T13:26:06;100312.93;;;31.36;28.29
44313;BME280;38833;51.142;-0.974;2023-06-22T13:28:39;100314.14;;;31.27;28.22
44313;BME280;38833;51.142;-0.974;2023-06-22T13:31:12;100314.46;;;31.30;27.81
44313;BME280;38833;51.142;-0.974;2023-06-22T13:33:46;100314.33;;;31.34;27.81
44313;BME280;38833;51.142;-0.974;2023-06-22T13:36:19;100313.72;;;31.23;27.66
44313;BME280;38833;51.142;-0.974;2023-06-22T13:38:53;100317.38;;;31.23;27.71
44313;BME280;38833;51.142;-0.974;2023-06-22T13:41:26;100310.84;;;31.76;27.89
44313;BME280;38833;51.142;-0.974;2023-06-22T13:44:00;100310.59;;;31.49;27.66
44313;BME280;38833;51.142;-0.974;2023-06-22T13:46:33;100311.22;;;31.42;28.18
44313;BME280;38833;51.142;-0.974;2023-06-22T13:49:06;100310.40;;;31.37;28.05
44313;BME280;38833;51.142;-0.974;2023-06-22T13:51:40;100309.61;;;31.20;27.89
44313;BME280;38833;51.142;-0.974;2023-06-22T13:54:13;100309.26;;;31.27;28.03
44313;BME280;38833;51.142;-0.974;2023-06-22T13:56:46;100313.18;;;31.24;28.13
44313;BME280;38833;51.142;-0.974;2023-06-22T13:59:19;100320.05;;;31.11;28.22
44313;BME280;38833;51.142;-0.974;2023-06-22T14:01:53;100317.00;;;31.18;27.95
44313;BME280;38833;51.142;-0.974;2023-06-22T14:04:26;100317.93;;;31.35;27.70
44313;BME280;38833;51.142;-0.974;2023-06-22T14:06:59;100322.36;;;31.20;27.56
44313;BME280;38833;51.142;-0.974;2023-06-22T14:09:32;100320.31;;;31.16;27.81
44313;BME280;38833;51.142;-0.974;2023-06-22T14:12:07;100314.02;;;31.42;27.74
44313;BME280;38833;51.142;-0.974;2023-06-22T14:14:40;100313.30;;;31.39;27.64
44313;BME280;38833;51.142;-0.974;2023-06-22T14:17:14;100310.30;;;31.68;27.96
44313;BME280;38833;51.142;-0.974;2023-06-22T14:19:47;100308.03;;;31.46;27.95
44313;BME280;38833;51.142;-0.974;2023-06-22T14:22:21;100306.12;;;31.54;27.94
44313;BME280;38833;51.142;-0.974;2023-06-22T14:24:55;100305.41;;;31.55;28.02
44313;BME280;38833;51.142;-0.974;2023-06-22T14:27:28;100302.31;;;31.66;27.93
44313;BME280;38833;51.142;-0.974;2023-06-22T14:30:02;100305.01;;;31.92;27.90
44313;BME280;38833;51.142;-0.974;2023-06-22T14:32:35;100309.69;;;31.75;27.91
44313;BME280;38833;51.142;-0.974;2023-06-22T14:35:08;100309.61;;;31.74;27.98
44313;BME280;38833;51.142;-0.974;2023-06-22T14:37:42;100306.58;;;31.80;27.94
44313;BME280;38833;51.142;-0.974;2023-06-22T14:40:15;100307.32;;;31.67;27.86
44313;BME280;38833;51.142;-0.974;2023-06-22T14:42:49;100312.12;;;31.92;27.89
44313;BME280;38833;51.142;-0.974;2023-06-22T14:45:22;100308.29;;;31.99;27.83
44313;BME280;38833;51.142;-0.974;2023-06-22T14:47:55;100307.21;;;32.01;27.86
44313;BME280;38833;51.142;-0.974;2023-06-22T14:50:28;100307.84;;;31.80;27.90
44313;BME280;38833;51.142;-0.974;2023-06-22T14:53:02;100307.92;;;32.07;27.93
44313;BME280;38833;51.142;-0.974;2023-06-22T14:55:35;100307.26;;;32.03;27.93
44313;BME280;38833;51.142;-0.974;2023-06-22T14:58:10;100309.95;;;31.84;27.90
44313;BME280;38833;51.142;-0.974;2023-06-22T15:00:43;100316.37;;;32.12;27.84
44313;BME280;38833;51.142;-0.974;2023-06-22T15:03:16;100314.87;;;32.22;27.77
44313;BME280;38833;51.142;-0.974;2023-06-22T15:05:50;100313.07;;;32.12;27.77
44313;BME280;38833;51.142;-0.974;2023-06-22T15:08:23;100314.18;;;32.19;27.80
44313;BME280;38833;51.142;-0.974;2023-06-22T15:10:59;100316.39;;;31.93;27.85
44313;BME280;38833;51.142;-0.974;2023-06-22T15:13:33;100315.94;;;32.11;27.80
44313;BME280;38833;51.142;-0.974;2023-06-22T15:16:07;100311.12;;;32.16;27.73
44313;BME280;38833;51.142;-0.974;2023-06-22T15:18:40;100311.33;;;32.07;27.79
44313;BME280;38833;51.142;-0.974;2023-06-22T15:21:14;100307.84;;;32.13;27.87
44313;BME280;38833;51.142;-0.974;2023-06-22T15:23:47;100301.89;;;32.16;27.74
44313;BME280;38833;51.142;-0.974;2023-06-22T15:26:20;100302.62;;;32.18;27.84
44313;BME280;38833;51.142;-0.974;2023-06-22T15:28:54;100308.25;;;32.20;27.80
44313;BME280;38833;51.142;-0.974;2023-06-22T15:31:27;100302.97;;;32.23;27.76
44313;BME280;38833;51.142;-0.974;2023-06-22T15:34:00;100303.62;;;32.17;27.85
44313;BME280;38833;51.142;-0.974;2023-06-22T15:36:34;100302.44;;;32.18;27.98
44313;BME280;38833;51.142;-0.974;2023-06-22T15:39:08;100300.11;;;32.06;27.85
44313;BME280;38833;51.142;-0.974;2023-06-22T15:41:41;100304.52;;;32.07;27.99
44313;BME280;38833;51.142;-0.974;2023-06-22T15:44:15;100306.72;;;32.01;27.90
44313;BME280;38833;51.142;-0.974;2023-06-22T15:46:48;100311.51;;;31.96;27.96
44313;BME280;38833;51.142;-0.974;2023-06-22T15:49:21;100312.96;;;31.98;27.89
44313;BME280;38833;51.142;-0.974;2023-06-22T15:51:54;100312.72;;;31.91;28.11
44313;BME280;38833;51.142;-0.974;2023-06-22T15:54:28;100308.85;;;31.88;28.01
44313;BME280;38833;51.142;-0.974;2023-06-22T15:57:01;100304.69;;;31.84;28.04
44313;BME280;38833;51.142;-0.974;2023-06-22T15:59:34;100304.52;;;31.86;28.01
44313;BME280;38833;51.142;-0.974;2023-06-22T16:02:08;100304.40;;;31.74;28.11
44313;BME280;38833;51.142;-0.974;2023-06-22T16:04:41;100305.14;;;31.80;28.06
44313;BME280;38833;51.142;-0.974;2023-06-22T16:07:15;100307.18;;;31.80;28.07
44313;BME280;38833;51.142;-0.974;2023-06-22T16:09:48;100305.69;;;31.74;28.14
44313;BME280;38833;51.142;-0.974;2023-06-22T16:12:21;100307.26;;;31.76;28.17
44313;BME280;38833;51.142;-0.974;2023-06-22T16:14:55;100309.14;;;31.67;28.26
44313;BME280;38833;51.142;-0.974;2023-06-22T16:17:28;100313.21;;;31.70;28.48
44313;BME280;38833;51.142;-0.974;2023-06-22T16:20:01;100314.83;;;31.65;28.17
44313;BME280;38833;51.142;-0.974;2023-06-22T16:22:35;100314.04;;;31.63;27.90
44313;BME280;38833;51.142;-0.974;2023-06-22T16:25:08;100312.34;;;31.64;27.83
44313;BME280;38833;51.142;-0.974;2023-06-22T16:27:44;100314.94;;;31.68;27.90
44313;BME280;38833;51.142;-0.974;2023-06-22T16:30:17;100316.28;;;31.59;27.58
44313;BME280;38833;51.142;-0.974;2023-06-22T16:32:51;100311.44;;;31.61;27.36
44313;BME280;38833;51.142;-0.974;2023-06-22T16:35:25;100312.07;;;31.37;27.55
44313;BME280;38833;51.142;-0.974;2023-06-22T16:37:59;100311.98;;;31.55;26.37
44313;BME280;38833;51.142;-0.974;2023-06-22T16:40:33;100311.62;;;31.57;25.03
44313;BME280;38833;51.142;-0.974;2023-06-22T16:43:06;100314.61;;;31.51;26.99
44313;BME280;38833;51.142;-0.974;2023-06-22T16:45:39;100315.52;;;31.82;27.21
44313;BME280;38833;51.142;-0.974;2023-06-22T16:48:13;100314.77;;;31.54;27.32
44313;BME280;38833;51.142;-0.974;2023-06-22T16:50:46;100314.34;;;31.57;27.78
44313;BME280;38833;51.142;-0.974;2023-06-22T16:53:19;100311.28;;;31.37;27.38
44313;BME280;38833;51.142;-0.974;2023-06-22T16:55:53;100316.41;;;31.67;27.52
44313;BME280;38833;51.142;-0.974;2023-06-22T16:58:26;100320.95;;;31.67;27.60
44313;BME280;38833;51.142;-0.974;2023-06-22T17:01:00;100321.87;;;31.60;27.58
44313;BME280;38833;51.142;-0.974;2023-06-22T17:03:38;100321.06;;;31.56;27.55
44313;BME280;38833;51.142;-0.974;2023-06-22T17:06:14;100321.00;;;31.68;27.38
44313;BME280;38833;51.142;-0.974;2023-06-22T17:08:49;100323.26;;;31.60;27.64
44313;BME280;38833;51.142;-0.974;2023-06-22T17:11:22;100325.61;;;31.73;27.40
44313;BME280;38833;51.142;-0.974;2023-06-22T17:13:57;100327.35;;;31.82;26.29
44313;BME280;38833;51.142;-0.974;2023-06-22T17:16:32;100328.97;;;31.62;27.43
44313;BME280;38833;51.142;-0.974;2023-06-22T17:19:07;100332.02;;;31.61;27.09
44313;BME280;38833;51.142;-0.974;2023-06-22T17:21:40;100336.53;;;31.66;27.47
44313;BME280;38833;51.142;-0.974;2023-06-22T17:24:16;100337.59;;;31.75;26.94
44313;BME280;38833;51.142;-0.974;2023-06-22T17:26:53;100337.78;;;31.49;27.21
44313;BME280;38833;51.142;-0.974;2023-06-22T17:29:28;100342.11;;;31.64;27.43
44313;BME280;38833;51.142;-0.974;2023-06-22T17:32:03;100343.56;;;31.37;27.73
44313;BME280;38833;51.142;-0.974;2023-06-22T17:34:36;100346.85;;;31.55;26.75
44313;BME280;38833;51.142;-0.974;2023-06-22T17:37:09;100347.88;;;31.68;25.34
44313;BME280;38833;51.142;-0.974;2023-06-22T17:39:51;100347.02;;;31.68;25.16
44313;BME280;38833;51.142;-0.974;2023-06-22T17:42:25;100354.34;;;31.67;24.85
44313;BME280;38833;51.142;-0.974;2023-06-22T17:45:01;100353.49;;;31.67;24.58
44313;BME280;38833;51.142;-0.974;2023-06-22T17:47:34;100355.05;;;31.78;25.04
44313;BME280;38833;51.142;-0.974;2023-06-22T17:50:08;100357.47;;;32.08;24.77
44313;BME280;38833;51.142;-0.974;2023-06-22T17:52:53;100355.92;;;31.86;24.44
44313;BME280;38833;51.142;-0.974;2023-06-22T17:55:26;100358.19;;;31.79;24.93
44313;BME280;38833;51.142;-0.974;2023-06-22T17:58:00;100356.44;;;31.81;24.75
44313;BME280;38833;51.142;-0.974;2023-06-22T18:00:34;100358.35;;;31.85;25.20
44313;BME280;38833;51.142;-0.974;2023-06-22T18:03:07;100364.55;;;31.92;25.30
44313;BME280;38833;51.142;-0.974;2023-06-22T18:05:46;100367.09;;;31.79;24.77
44313;BME280;38833;51.142;-0.974;2023-06-22T18:08:25;100369.80;;;31.64;25.25
44313;BME280;38833;51.142;-0.974;2023-06-22T18:11:01;100374.38;;;31.49;26.04
44313;BME280;38833;51.142;-0.974;2023-06-22T18:13:38;100376.90;;;31.55;24.56
44313;BME280;38833;51.142;-0.974;2023-06-22T18:16:14;100379.39;;;30.89;24.45
44313;BME280;38833;51.142;-0.974;2023-06-22T18:18:47;100376.80;;;31.09;24.47
44313;BME280;38833;51.142;-0.974;2023-06-22T18:21:21;100379.28;;;30.95;24.47
44313;BME280;38833;51.142;-0.974;2023-06-22T18:23:55;100383.10;;;30.99;24.48
44313;BME280;38833;51.142;-0.974;2023-06-22T18:26:29;100386.72;;;31.41;24.69
44313;BME280;38833;51.142;-0.974;2023-06-22T18:29:03;100387.69;;;30.78;25.02
44313;BME280;38833;51.142;-0.974;2023-06-22T18:31:38;100387.55;;;31.02;24.40
44313;BME280;38833;51.142;-0.974;2023-06-22T18:34:12;100396.11;;;30.10;24.83
44313;BME280;38833;51.142;-0.974;2023-06-22T18:36:49;100396.28;;;30.42;24.41
44313;BME280;38833;51.142;-0.974;2023-06-22T18:39:25;100405.01;;;29.68;24.62
44313;BME280;38833;51.142;-0.974;2023-06-22T18:42:00;100404.17;;;30.80;24.00
44313;BME280;38833;51.142;-0.974;2023-06-22T18:44:34;100413.46;;;30.59;24.02
44313;BME280;38833;51.142;-0.974;2023-06-22T18:47:08;100410.34;;;30.07;24.59
44313;BME280;38833;51.142;-0.974;2023-06-22T18:49:46;100411.38;;;30.02;24.83
44313;BME280;38833;51.142;-0.974;2023-06-22T18:52:24;100418.61;;;30.38;24.74
44313;BME280;38833;51.142;-0.974;2023-06-22T18:55:01;100424.83;;;29.89;25.59
44313;BME280;38833;51.142;-0.974;2023-06-22T18:57:35;100430.07;;;30.60;25.27
44313;BME280;38833;51.142;-0.974;2023-06-22T19:00:09;100433.68;;;30.69;25.48
44313;BME280;38833;51.142;-0.974;2023-06-22T19:02:44;100433.65;;;30.63;25.82
44313;BME280;38833;51.142;-0.974;2023-06-22T19:05:19;100435.43;;;30.02;26.33
44313;BME280;38833;51.142;-0.974;2023-06-22T19:08:10;100434.16;;;30.31;26.25
44313;BME280;38833;51.142;-0.974;2023-06-22T19:10:43;100436.41;;;30.85;26.25
44313;BME280;38833;51.142;-0.974;2023-06-22T19:13:20;100438.25;;;31.02;26.40
44313;BME280;38833;51.142;-0.974;2023-06-22T19:15:58;100439.27;;;30.65;26.47
44313;BME280;38833;51.142;-0.974;2023-06-22T19:18:34;100446.77;;;30.65;26.81
44313;BME280;38833;51.142;-0.974;2023-06-22T19:21:09;100449.03;;;31.07;26.53
44313;BME280;38833;51.142;-0.974;2023-06-22T19:23:43;100453.25;;;29.96;27.26
44313;BME280;38833;51.142;-0.974;2023-06-22T19:26:18;100455.90;;;30.02;27.11
44313;BME280;38833;51.142;-0.974;2023-06-22T19:28:52;100460.46;;;30.18;26.94
44313;BME280;38833;51.142;-0.974;2023-06-22T19:31:26;100463.81;;;30.72;27.00
44313;BME280;38833;51.142;-0.974;2023-06-22T19:34:01;100467.83;;;30.55;27.07
44313;BME280;38833;51.142;-0.974;2023-06-22T19:36:35;100468.77;;;30.21;26.98
44313;BME280;38833;51.142;-0.974;2023-06-22T19:39:08;100473.61;;;30.42;27.05
44313;BME280;38833;51.142;-0.974;2023-06-22T19:41:45;100474.63;;;30.41;27.03
44313;BME280;38833;51.142;-0.974;2023-06-22T19:44:18;100481.18;;;30.87;26.65
44313;BME280;38833;51.142;-0.974;2023-06-22T19:46:53;100482.08;;;29.69;27.13
44313;BME280;38833;51.142;-0.974;2023-06-22T19:49:27;100481.91;;;30.37;27.09
44313;BME280;38833;51.142;-0.974;2023-06-22T19:52:05;100479.37;;;30.48;26.98
44313;BME280;38833;51.142;-0.974;2023-06-22T19:54:39;100483.64;;;29.89;27.49
44313;BME280;38833;51.142;-0.974;2023-06-22T19:57:12;100483.01;;;30.23;27.04
44313;BME280;38833;51.142;-0.974;2023-06-22T19:59:45;100484.16;;;30.49;26.97
44313;BME280;38833;51.142;-0.974;2023-06-22T20:02:19;100485.29;;;30.07;26.96
44313;BME280;38833;51.142;-0.974;2023-06-22T20:04:52;100486.08;;;29.88;27.34
44313;BME280;38833;51.142;-0.974;2023-06-22T20:07:34;100490.95;;;30.10;27.16
44313;BME280;38833;51.142;-0.974;2023-06-22T20:10:12;100494.41;;;30.26;26.92
44313;BME280;38833;51.142;-0.974;2023-06-22T20:12:48;100498.70;;;30.04;27.08
44313;BME280;38833;51.142;-0.974;2023-06-22T20:15:23;100506.65;;;30.23;26.85
44313;BME280;38833;51.142;-0.974;2023-06-22T20:18:02;100512.40;;;30.07;27.10
44313;BME280;38833;51.142;-0.974;2023-06-22T20:20:37;100517.30;;;29.97;27.30
44313;BME280;38833;51.142;-0.974;2023-06-22T20:23:11;100517.77;;;30.26;26.81
44313;BME280;38833;51.142;-0.974;2023-06-22T20:25:45;100520.64;;;29.94;27.26
44313;BME280;38833;51.142;-0.974;2023-06-22T20:28:19;100522.40;;;30.10;26.86
44313;BME280;38833;51.142;-0.974;2023-06-22T20:31:03;100526.45;;;29.95;27.18
44313;BME280;38833;51.142;-0.974;2023-06-22T20:33:36;100537.75;;;30.12;27.09
44313;BME280;38833;51.142;-0.974;2023-06-22T20:36:10;100547.43;;;29.81;27.33
44313;BME280;38833;51.142;-0.974;2023-06-22T20:38:43;100561.42;;;29.44;28.00
44313;BME280;38833;51.142;-0.974;2023-06-22T20:41:16;100572.90;;;29.89;27.74
44313;BME280;38833;51.142;-0.974;2023-06-22T20:43:52;100580.20;;;30.03;27.82
44313;BME280;38833;51.142;-0.974;2023-06-22T20:46:25;100581.79;;;30.10;27.82
44313;BME280;38833;51.142;-0.974;2023-06-22T20:48:59;100582.78;;;30.17;27.63
44313;BME280;38833;51.142;-0.974;2023-06-22T20:51:32;100583.57;;;29.83;28.27
44313;BME280;38833;51.142;-0.974;2023-06-22T20:54:06;100584.36;;;29.72;28.21
44313;BME280;38833;51.142;-0.974;2023-06-22T20:56:39;100585.50;;;29.83;28.06
44313;BME280;38833;51.142;-0.974;2023-06-22T20:59:12;100582.86;;;29.83;27.86
44313;BME280;38833;51.142;-0.974;2023-06-22T21:01:46;100580.47;;;29.59;28.02
44313;BME280;38833;51.142;-0.974;2023-06-22T21:04:19;100580.53;;;29.64;28.02
44313;BME280;38833;51.142;-0.974;2023-06-22T21:06:52;100588.95;;;29.43;28.29
44313;BME280;38833;51.142;-0.974;2023-06-22T21:09:26;100592.75;;;29.84;27.77
44313;BME280;38833;51.142;-0.974;2023-06-22T21:11:59;100590.57;;;29.04;28.07
44313;BME280;38833;51.142;-0.974;2023-06-22T21:14:33;100591.08;;;29.40;27.90
44313;BME280;38833;51.142;-0.974;2023-06-22T21:17:06;100590.14;;;29.09;28.10
44313;BME280;38833;51.142;-0.974;2023-06-22T21:19:39;100593.81;;;29.47;27.73
44313;BME280;38833;51.142;-0.974;2023-06-22T21:22:13;100596.86;;;29.11;27.79
44313;BME280;38833;51.142;-0.974;2023-06-22T21:25:02;100599.43;;;28.99;28.14
44313;BME280;38833;51.142;-0.974;2023-06-22T21:27:38;100602.16;;;28.75;28.24
44313;BME280;38833;51.142;-0.974;2023-06-22T21:30:12;100601.43;;;29.15;28.17
44313;BME280;38833;51.142;-0.974;2023-06-22T21:32:46;100607.51;;;29.48;28.07
44313;BME280;38833;51.142;-0.974;2023-06-22T21:35:19;100609.90;;;29.12;28.14
44313;BME280;38833;51.142;-0.974;2023-06-22T21:37:54;100612.48;;;29.05;28.35
44313;BME280;38833;51.142;-0.974;2023-06-22T21:40:27;100612.99;;;28.74;28.06
44313;BME280;38833;51.142;-0.974;2023-06-22T21:43:00;100613.95;;;29.07;27.72
44313;BME280;38833;51.142;-0.974;2023-06-22T21:45:33;100616.51;;;29.33;27.94
44313;BME280;38833;51.142;-0.974;2023-06-22T21:48:07;100621.77;;;29.01;28.06
44313;BME280;38833;51.142;-0.974;2023-06-22T21:50:40;100623.53;;;28.82;28.10
44313;BME280;38833;51.142;-0.974;2023-06-22T21:53:13;100626.84;;;29.05;27.84
44313;BME280;38833;51.142;-0.974;2023-06-22T21:55:47;100629.27;;;28.82;28.19
44313;BME280;38833;51.142;-0.974;2023-06-22T21:58:20;100632.70;;;29.34;28.57
44313;BME280;38833;51.142;-0.974;2023-06-22T22:00:54;100634.39;;;29.49;28.49
44313;BME280;38833;51.142;-0.974;2023-06-22T22:03:28;100636.00;;;29.72;28.39
44313;BME280;38833;51.142;-0.974;2023-06-22T22:06:01;100633.02;;;29.59;28.24
44313;BME280;38833;51.142;-0.974;2023-06-22T22:08:34;100629.41;;;29.63;28.25
44313;BME280;38833;51.142;-0.974;2023-06-22T22:11:08;100628.92;;;29.61;28.31
44313;BME280;38833;51.142;-0.974;2023-06-22T22:13:41;100632.05;;;29.70;28.25
44313;BME280;38833;51.142;-0.974;2023-06-22T22:16:14;100631.31;;;29.65;28.31
44313;BME280;38833;51.142;-0.974;2023-06-22T22:18:48;100635.74;;;29.50;28.51
44313;BME280;38833;51.142;-0.974;2023-06-22T22:21:21;100637.76;;;29.91;28.40
44313;BME280;38833;51.142;-0.974;2023-06-22T22:23:54;100635.13;;;30.04;28.30
44313;BME280;38833;51.142;-0.974;2023-06-22T22:26:28;100634.83;;;29.46;28.42
44313;BME280;38833;51.142;-0.974;2023-06-22T22:29:01;100630.44;;;29.44;28.48
44313;BME280;38833;51.142;-0.974;2023-06-22T22:31:35;100630.23;;;30.01;28.42
44313;BME280;38833;51.142;-0.974;2023-06-22T22:34:08;100628.64;;;29.91;28.54
44313;BME280;38833;51.142;-0.974;2023-06-22T22:36:41;100627.41;;;30.09;28.37
44313;BME280;38833;51.142;-0.974;2023-06-22T22:39:29;100624.18;;;29.80;28.42
44313;BME280;38833;51.142;-0.974;2023-06-22T22:42:03;100621.27;;;29.54;28.74
44313;BME280;38833;51.142;-0.974;2023-06-22T22:44:37;100619.48;;;29.39;29.24
44313;BME280;38833;51.142;-0.974;2023-06-22T22:47:10;100618.93;;;29.44;28.80
44313;BME280;38833;51.142;-0.974;2023-06-22T22:49:44;100618.30;;;29.32;28.86
44313;BME280;38833;51.142;-0.974;2023-06-22T22:52:18;100623.12;;;29.80;28.86
44313;BME280;38833;51.142;-0.974;2023-06-22T22:54:51;100624.68;;;29.69;29.00
44313;BME280;38833;51.142;-0.974;2023-06-22T22:57:24;100625.26;;;29.61;29.10
44313;BME280;38833;51.142;-0.974;2023-06-22T22:59:58;100623.34;;;29.66;29.10
44313;BME280;38833;51.142;-0.974;2023-06-22T23:02:32;100619.74;;;29.34;29.13
44313;BME280;38833;51.142;-0.974;2023-06-22T23:05:06;100622.75;;;29.91;28.87
44313;BME280;38833;51.142;-0.974;2023-06-22T23:07:39;100626.78;;;29.72;29.10
44313;BME280;38833;51.142;-0.974;2023-06-22T23:10:13;100629.00;;;29.62;28.95
44313;BME280;38833;51.142;-0.974;2023-06-22T23:12:46;100632.02;;;29.62;28.90
44313;BME280;38833;51.142;-0.974;2023-06-22T23:15:19;100637.54;;;29.82;29.04
44313;BME280;38833;51.142;-0.974;2023-06-22T23:17:53;100635.41;;;29.63;28.98
44313;BME280;38833;51.142;-0.974;2023-06-22T23:20:26;100635.23;;;29.46;29.14
44313;BME280;38833;51.142;-0.974;2023-06-22T23:22:59;100638.26;;;29.42;29.51
44313;BME280;38833;51.142;-0.974;2023-06-22T23:25:33;100639.67;;;29.75;29.23
44313;BME280;38833;51.142;-0.974;2023-06-22T23:28:06;100640.57;;;29.55;29.15
44313;BME280;38833;51.142;-0.974;2023-06-22T23:30:39;100641.53;;;29.34;29.36
44313;BME280;38833;51.142;-0.974;2023-06-22T23:33:12;100641.73;;;29.51;29.22
44313;BME280;38833;51.142;-0.974;2023-06-22T23:35:46;100637.08;;;29.42;29.60
44313;BME280;38833;51.142;-0.974;2023-06-22T23:38:19;100632.18;;;29.79;29.23
44313;BME280;38833;51.142;-0.974;2023-06-22T23:40:52;100627.50;;;29.40;29.39
44313;BME280;38833;51.142;-0.974;2023-06-22T23:43:26;100627.83;;;29.50;29.27
44313;BME280;38833;51.142;-0.974;2023-06-22T23:45:59;100633.85;;;29.75;29.30